Time;durP1;ratioP1;P1;durP2;ratioP2;P2;SDS_P1;SDS_P2;PMS_P1;PMS_P2;Temp;Humidity;BMP_temperature;BMP_pressure;BME280_temperature;BME280_humidity;BME280_pressure;Samples;Min_cycle;Max_cycle;Signal;HPM_P1;HPM_P2
2024/01/27 00:00:46;;;;;;;3.83;1.40;;;16.20;53.90;;;;;;5150732;27;45291;-52
2024/01/27 00:03:13;;;;;;;4.32;1.30;;;16.20;53.60;;;;;;5150948;27;46335;-52
2024/01/27 00:05:40;;;;;;;5.80;1.50;;;16.20;53.70;;;;;;5151583;27;45143;-53
2024/01/27 00:08:08;;;;;;;5.05;1.60;;;16.20;53.50;;;;;;5152256;27;45150;-53
2024/01/27 00:10:35;;;;;;;4.68;1.50;;;16.20;53.30;;;;;;5152692;27;45589;-53
2024/01/27 00:13:01;;;;;;;2.97;1.48;;;16.20;53.30;;;;;;5151688;27;47500;-53
2024/01/27 00:15:28;;;;;;;5.13;1.70;;;16.20;53.40;;;;;;5153089;27;44670;-53
2024/01/27 00:17:55;;;;;;;5.90;2.00;;;16.20;52.70;;;;;;5151817;27;45491;-53
2024/01/27 00:20:21;;;;;;;5.43;1.77;;;16.20;52.40;;;;;;5151313;27;45146;-53
2024/01/27 00:22:48;;;;;;;4.40;1.63;;;16.20;52.10;;;;;;5143572;27;45252;-53
2024/01/27 00:25:16;;;;;;;5.35;1.50;;;16.30;52.00;;;;;;5150580;27;44703;-53
2024/01/27 00:27:43;;;;;;;3.75;1.55;;;16.30;52.00;;;;;;5156415;27;45194;-53
2024/01/27 00:30:11;;;;;;;4.20;1.20;;;16.30;52.00;;;;;;5152076;27;45164;-53
2024/01/27 00:32:38;;;;;;;3.97;1.30;;;16.30;52.00;;;;;;5152382;27;46354;-53
2024/01/27 00:35:05;;;;;;;3.67;1.60;;;16.30;52.00;;;;;;5151303;27;45411;-53
2024/01/27 00:37:32;;;;;;;3.67;1.10;;;16.30;51.90;;;;;;5152779;27;45170;-53
2024/01/27 00:39:59;;;;;;;4.30;1.60;;;16.40;52.20;;;;;;5148078;27;45497;-52
2024/01/27 00:42:27;;;;;;;3.55;1.52;;;16.30;52.20;;;;;;5149065;27;45599;-53
2024/01/27 00:44:53;;;;;;;4.63;1.90;;;16.30;52.30;;;;;;5155651;27;45180;-53
2024/01/27 00:47:20;;;;;;;5.05;1.70;;;16.30;52.30;;;;;;5148406;27;45369;-53
2024/01/27 00:49:47;;;;;;;3.88;1.52;;;16.30;52.30;;;;;;5155049;27;45449;-52
2024/01/27 00:52:14;;;;;;;6.30;1.55;;;16.30;52.50;;;;;;5146018;27;45361;-53
2024/01/27 00:54:41;;;;;;;6.82;1.52;;;16.30;52.50;;;;;;5151705;27;45276;-53
2024/01/27 00:57:07;;;;;;;4.70;1.75;;;16.30;52.70;;;;;;5148831;27;45244;-53
2024/01/27 00:59:36;;;;;;;5.50;1.50;;;16.30;52.70;;;;;;5147464;27;44717;-53
2024/01/27 01:02:03;;;;;;;6.63;1.75;;;16.30;52.70;;;;;;5149747;27;46178;-53
2024/01/27 01:04:30;;;;;;;6.10;1.45;;;16.30;52.90;;;;;;5147871;27;45269;-53
2024/01/27 01:06:57;;;;;;;5.38;1.55;;;16.30;53.10;;;;;;5149468;27;45212;-53
2024/01/27 01:09:23;;;;;;;4.82;1.60;;;16.30;52.70;;;;;;5147113;27;45441;-53
2024/01/27 01:11:50;;;;;;;5.05;1.65;;;16.30;52.70;;;;;;5149160;27;45425;-53
2024/01/27 01:14:17;;;;;;;3.92;1.40;;;16.20;52.40;;;;;;5150484;27;45167;-53
2024/01/27 01:16:45;;;;;;;6.25;1.85;;;16.20;51.90;;;;;;5147673;27;45260;-52
2024/01/27 01:19:12;;;;;;;4.75;1.33;;;16.20;51.60;;;;;;5152751;27;45202;-53
2024/01/27 01:21:39;;;;;;;4.88;1.70;;;16.10;50.80;;;;;;5149607;27;47592;-53
2024/01/27 01:24:06;;;;;;;6.22;1.90;;;16.10;50.30;;;;;;5149664;27;45254;-53
2024/01/27 01:26:33;;;;;;;5.72;1.73;;;16.10;50.30;;;;;;5148848;27;45172;-53
2024/01/27 01:29:00;;;;;;;8.30;2.10;;;16.10;50.30;;;;;;5151095;27;45388;-53
2024/01/27 01:31:26;;;;;;;7.35;1.58;;;16.10;50.30;;;;;;5156864;27;46228;-53
2024/01/27 01:33:54;;;;;;;4.57;1.70;;;16.10;50.30;;;;;;5155012;27;45184;-53
2024/01/27 01:36:20;;;;;;;5.32;2.05;;;16.10;50.10;;;;;;5152894;27;45215;-53
2024/01/27 01:38:47;;;;;;;5.93;1.80;;;16.10;50.30;;;;;;5155536;27;45162;-53
2024/01/27 01:41:14;;;;;;;5.43;1.50;;;16.00;50.00;;;;;;5153466;27;45174;-53
2024/01/27 01:43:40;;;;;;;5.03;1.85;;;16.00;50.30;;;;;;5154415;27;45145;-53
2024/01/27 01:46:07;;;;;;;4.53;1.63;;;16.00;50.30;;;;;;5153551;27;45282;-53
2024/01/27 01:48:34;;;;;;;5.47;1.70;;;15.90;50.20;;;;;;5152912;27;45308;-53
2024/01/27 01:51:03;;;;;;;5.32;1.50;;;15.90;49.50;;;;;;5152774;27;47002;-53
2024/01/27 01:53:30;;;;;;;5.72;1.73;;;15.90;49.40;;;;;;5156743;27;45500;-53
2024/01/27 01:55:57;;;;;;;6.88;1.73;;;16.00;48.90;;;;;;5157487;27;45216;-53
2024/01/27 01:58:23;;;;;;;7.63;2.00;;;16.00;48.50;;;;;;5151008;27;45319;-53
2024/01/27 02:00:50;;;;;;;4.60;1.42;;;16.00;48.50;;;;;;5152918;27;45280;-53
2024/01/27 02:03:16;;;;;;;3.85;1.67;;;16.00;48.10;;;;;;5153230;27;45193;-53
2024/01/27 02:05:43;;;;;;;8.70;1.95;;;16.00;47.90;;;;;;5154707;27;45206;-53
2024/01/27 02:08:11;;;;;;;5.47;1.67;;;16.10;47.90;;;;;;5153214;27;45193;-53
2024/01/27 02:10:38;;;;;;;8.25;1.90;;;16.00;47.80;;;;;;5151582;27;46203;-53
2024/01/27 02:13:06;;;;;;;5.75;2.15;;;16.00;48.10;;;;;;5153025;27;45129;-53
2024/01/27 02:15:33;;;;;;;5.43;1.77;;;16.00;47.70;;;;;;5153202;27;45250;-53
2024/01/27 02:17:59;;;;;;;5.95;2.05;;;16.00;47.80;;;;;;5149377;27;45505;-53
2024/01/27 02:20:26;;;;;;;5.78;1.80;;;16.10;47.70;;;;;;5160493;27;45189;-53
2024/01/27 02:22:53;;;;;;;6.88;1.63;;;16.00;47.40;;;;;;5151046;27;45310;-53
2024/01/27 02:25:21;;;;;;;5.68;2.03;;;16.00;47.90;;;;;;5151577;27;45344;-53
2024/01/27 02:27:48;;;;;;;5.60;1.70;;;16.00;47.90;;;;;;5155286;27;45404;-53
2024/01/27 02:30:14;;;;;;;4.10;1.52;;;15.90;47.70;;;;;;5153251;27;47070;-53
2024/01/27 02:32:41;;;;;;;4.78;1.80;;;15.90;47.60;;;;;;5153256;27;45554;-53
2024/01/27 02:35:09;;;;;;;6.53;1.65;;;15.90;48.00;;;;;;5151202;27;45379;-53
2024/01/27 02:37:35;;;;;;;6.90;1.70;;;15.90;47.60;;;;;;5153606;27;46041;-53
2024/01/27 02:40:02;;;;;;;5.78;1.98;;;15.90;47.70;;;;;;5151362;27;45204;-53
2024/01/27 02:42:30;;;;;;;7.00;2.00;;;15.90;47.70;;;;;;5154948;27;45281;-53
2024/01/27 02:44:57;;;;;;;7.38;1.88;;;15.90;47.70;;;;;;5152572;27;45278;-53
2024/01/27 02:47:24;;;;;;;5.85;1.80;;;15.90;47.70;;;;;;5152229;27;45203;-53
2024/01/27 02:49:51;;;;;;;6.70;1.40;;;15.90;47.20;;;;;;5153220;27;46420;-53
2024/01/27 02:52:17;;;;;;;5.90;1.55;;;15.90;46.90;;;;;;5151252;27;45275;-53
2024/01/27 02:54:45;;;;;;;7.43;1.67;;;15.90;46.70;;;;;;5150571;27;45142;-53
2024/01/27 02:57:12;;;;;;;7.47;1.75;;;16.00;46.80;;;;;;5150655;27;44666;-53
2024/01/27 02:59:41;;;;;;;5.38;1.60;;;16.00;47.00;;;;;;5151765;27;46276;-53
2024/01/27 03:02:08;;;;;;;5.57;2.00;;;16.00;46.60;;;;;;5150736;27;44643;-53
2024/01/27 03:04:34;;;;;;;4.18;1.67;;;16.00;46.60;;;;;;5154972;27;45324;-53
2024/01/27 03:07:01;;;;;;;7.38;1.90;;;16.00;46.30;;;;;;5151878;27;45203;-53
2024/01/27 03:09:28;;;;;;;4.68;2.22;;;16.00;46.20;;;;;;5149760;27;45466;-53
2024/01/27 03:11:54;;;;;;;5.18;1.88;;;16.00;46.40;;;;;;5151673;27;45401;-53
2024/01/27 03:14:21;;;;;;;9.07;1.60;;;16.00;46.20;;;;;;5152730;27;45480;-53
2024/01/27 03:16:49;;;;;;;7.35;1.77;;;16.00;46.30;;;;;;5149579;27;45312;-53
2024/01/27 03:19:16;;;;;;;5.80;1.60;;;15.90;46.20;;;;;;5151623;27;45240;-53
2024/01/27 03:21:43;;;;;;;6.63;1.77;;;15.90;46.40;;;;;;5154478;27;45239;-53
2024/01/27 03:24:10;;;;;;;8.10;1.88;;;15.90;46.80;;;;;;5149490;27;44639;-53
2024/01/27 03:26:37;;;;;;;7.53;2.58;;;15.80;46.40;;;;;;5154172;27;45368;-53
2024/01/27 03:29:03;;;;;;;6.90;2.00;;;15.80;46.60;;;;;;5150630;27;45670;-53
2024/01/27 03:31:34;;;;;;;4.57;1.58;;;15.80;46.50;;;;;;5151683;27;45595;-53
2024/01/27 03:34:03;;;;;;;7.35;1.70;;;15.80;46.30;;;;;;5150488;27;45147;-53
2024/01/27 03:36:30;;;;;;;6.07;1.65;;;15.80;46.20;;;;;;5152353;27;45318;-53
2024/01/27 03:38:58;;;;;;;6.82;1.98;;;15.90;50.20;;;;;;5150871;27;46519;-53
2024/01/27 03:41:25;;;;;;;4.10;1.60;;;15.90;48.70;;;;;;5150169;27;45345;-53
2024/01/27 03:43:51;;;;;;;4.32;1.38;;;15.90;47.70;;;;;;5153010;27;45141;-53
2024/01/27 03:46:19;;;;;;;4.65;1.65;;;15.90;47.10;;;;;;5149203;27;45368;-53
2024/01/27 03:48:46;;;;;;;5.15;1.83;;;15.90;46.70;;;;;;5151720;27;48161;-53
2024/01/27 03:51:14;;;;;;;5.18;1.73;;;15.90;46.30;;;;;;5155151;27;46048;-53
2024/01/27 03:53:40;;;;;;;4.80;1.60;;;15.90;45.90;;;;;;5151830;27;45461;-53
2024/01/27 03:56:07;;;;;;;4.20;1.67;;;15.90;45.70;;;;;;5152344;27;45289;-53
2024/01/27 03:58:34;;;;;;;7.13;1.83;;;15.90;45.40;;;;;;5152402;27;45245;-53
2024/01/27 04:01:01;;;;;;;6.55;2.15;;;15.90;45.20;;;;;;5146969;27;45427;-53
2024/01/27 04:03:28;;;;;;;5.40;1.67;;;15.90;45.20;;;;;;5148005;27;45319;-53
2024/01/27 04:05:55;;;;;;;6.10;1.90;;;15.90;45.10;;;;;;5151446;27;45413;-53
2024/01/27 04:08:24;;;;;;;6.10;1.75;;;15.90;45.50;;;;;;5147856;27;46346;-53
2024/01/27 04:10:50;;;;;;;8.00;2.25;;;15.90;45.50;;;;;;5151032;27;45353;-53
2024/01/27 04:13:17;;;;;;;4.43;1.70;;;15.80;45.60;;;;;;5149856;27;45309;-53
2024/01/27 04:15:44;;;;;;;4.30;1.60;;;15.80;45.60;;;;;;5148788;27;45201;-53
2024/01/27 04:18:11;;;;;;;4.05;1.50;;;15.80;45.30;;;;;;5150760;27;46276;-53
2024/01/27 04:20:38;;;;;;;6.90;1.70;;;15.80;45.60;;;;;;5149895;27;45272;-53
2024/01/27 04:23:05;;;;;;;5.30;1.58;;;15.80;45.50;;;;;;5151387;27;45186;-53
2024/01/27 04:25:33;;;;;;;4.70;1.65;;;15.80;45.40;;;;;;5148822;27;45287;-53
2024/01/27 04:28:00;;;;;;;4.90;1.92;;;15.80;45.40;;;;;;5150605;27;47425;-52
2024/01/27 04:30:27;;;;;;;5.95;1.92;;;15.80;45.30;;;;;;5150387;27;45160;-53
2024/01/27 04:32:53;;;;;;;6.35;1.90;;;15.70;45.30;;;;;;5150808;27;45119;-53
2024/01/27 04:35:20;;;;;;;4.00;1.50;;;15.80;45.10;;;;;;5152818;27;45426;-53
2024/01/27 04:37:47;;;;;;;4.78;1.45;;;15.80;44.80;;;;;;5148985;27;45431;-53
2024/01/27 04:40:14;;;;;;;6.45;1.83;;;15.80;44.50;;;;;;5150193;27;45058;-52
2024/01/27 04:42:42;;;;;;;5.95;1.85;;;15.90;44.50;;;;;;5151118;27;45326;-53
2024/01/27 04:45:09;;;;;;;6.78;1.83;;;15.90;44.20;;;;;;5151525;27;45561;-53
2024/01/27 04:47:36;;;;;;;8.43;1.88;;;15.90;44.10;;;;;;5153504;27;45164;-52
2024/01/27 04:50:04;;;;;;;5.47;1.48;;;15.90;43.80;;;;;;5150710;27;45168;-53
2024/01/27 04:52:30;;;;;;;5.63;1.92;;;15.90;43.90;;;;;;5153261;27;45369;-53
2024/01/27 04:54:58;;;;;;;8.48;2.22;;;15.90;44.00;;;;;;5149681;27;45122;-53
2024/01/27 04:57:25;;;;;;;5.43;2.13;;;15.90;43.90;;;;;;5148252;27;45408;-53
2024/01/27 04:59:53;;;;;;;5.10;1.90;;;15.90;43.70;;;;;;5152104;27;45169;-53
2024/01/27 05:02:20;;;;;;;3.10;1.40;;;15.80;44.00;;;;;;5149143;27;45342;-53
2024/01/27 05:04:46;;;;;;;5.07;1.55;;;15.80;44.10;;;;;;5150952;27;45306;-53
2024/01/27 05:07:14;;;;;;;5.78;1.90;;;15.80;43.90;;;;;;5148085;27;46564;-53
2024/01/27 05:09:41;;;;;;;5.03;1.58;;;15.70;43.80;;;;;;5147765;27;45295;-53
2024/01/27 05:12:08;;;;;;;6.20;1.90;;;15.70;44.00;;;;;;5150320;27;45141;-53
2024/01/27 05:14:35;;;;;;;7.10;1.75;;;15.70;43.90;;;;;;5149720;27;45370;-53
2024/01/27 05:17:03;;;;;;;6.50;1.77;;;15.70;43.70;;;;;;5150188;27;48448;-53
2024/01/27 05:19:30;;;;;;;4.53;1.50;;;15.70;44.00;;;;;;5148328;27;45111;-53
2024/01/27 05:21:57;;;;;;;4.40;1.90;;;15.70;44.10;;;;;;5153876;27;45337;-53
2024/01/27 05:24:23;;;;;;;6.70;2.20;;;15.70;43.30;;;;;;5146185;27;45112;-53
2024/01/27 05:26:50;;;;;;;6.13;1.77;;;15.70;43.10;;;;;;5151458;27;46391;-53
2024/01/27 05:29:17;;;;;;;5.47;1.92;;;15.80;42.90;;;;;;5150726;27;45146;-52
2024/01/27 05:31:44;;;;;;;7.47;2.05;;;15.80;43.20;;;;;;5148207;27;45291;-53
2024/01/27 05:34:12;;;;;;;5.50;2.20;;;15.80;42.90;;;;;;5149103;27;45933;-53
2024/01/27 05:36:39;;;;;;;5.18;1.70;;;15.80;42.50;;;;;;5153254;27;47658;-53
2024/01/27 05:39:06;;;;;;;5.88;1.70;;;15.80;42.60;;;;;;5150768;27;45153;-53
2024/01/27 05:41:33;;;;;;;5.13;2.20;;;15.80;42.40;;;;;;5152025;27;45339;-53
2024/01/27 05:44:00;;;;;;;6.93;1.70;;;15.80;42.40;;;;;;5151743;27;45090;-52
2024/01/27 05:46:27;;;;;;;5.32;1.70;;;15.80;42.30;;;;;;5149478;27;46241;-53
2024/01/27 05:48:57;;;;;;;4.97;1.50;;;15.90;42.30;;;;;;5148497;27;45171;-52
2024/01/27 05:51:25;;;;;;;5.35;1.83;;;15.80;43.90;;;;;;5150321;27;45403;-53
2024/01/27 05:53:52;;;;;;;6.20;2.05;;;15.80;47.70;;;;;;5148209;27;45344;-53
2024/01/27 05:56:20;;;;;;;7.82;2.05;;;15.80;46.10;;;;;;5151264;27;46531;-53
2024/01/27 05:58:47;;;;;;;5.47;1.90;;;15.70;45.20;;;;;;5150139;27;45254;-53
2024/01/27 06:01:13;;;;;;;6.60;1.80;;;15.70;44.50;;;;;;5149396;27;45396;-53
2024/01/27 06:03:42;;;;;;;4.88;1.77;;;15.70;44.40;;;;;;5146552;27;45475;-53
2024/01/27 06:06:09;;;;;;;5.15;1.90;;;15.70;44.10;;;;;;5150603;27;45230;-53
2024/01/27 06:08:37;;;;;;;5.55;1.73;;;15.70;43.80;;;;;;5148740;27;45565;-52
2024/01/27 06:11:04;;;;;;;5.25;1.70;;;15.70;43.60;;;;;;5153447;27;45501;-53
2024/01/27 06:13:32;;;;;;;6.38;2.03;;;15.60;43.50;;;;;;5151805;27;44705;-53
2024/01/27 06:15:59;;;;;;;5.82;2.08;;;15.70;43.50;;;;;;5148551;27;45394;-53
2024/01/27 06:18:26;;;;;;;4.90;1.95;;;15.70;43.30;;;;;;5151871;27;45170;-52
2024/01/27 06:20:53;;;;;;;4.35;1.85;;;15.70;42.90;;;;;;5152537;27;45223;-53
2024/01/27 06:23:20;;;;;;;4.28;1.95;;;15.70;42.90;;;;;;5154447;27;45245;-53
2024/01/27 06:25:48;;;;;;;5.85;2.05;;;15.70;42.50;;;;;;5150211;27;46023;-52
2024/01/27 06:28:14;;;;;;;8.68;2.00;;;15.70;42.10;;;;;;5151885;27;46714;-52
2024/01/27 06:30:42;;;;;;;5.50;2.00;;;15.70;42.00;;;;;;5151909;27;45287;-52
2024/01/27 06:33:08;;;;;;;4.00;1.73;;;15.70;41.90;;;;;;5153694;27;45238;-53
2024/01/27 06:35:35;;;;;;;4.55;1.90;;;15.70;41.90;;;;;;5154689;27;45196;-53
2024/01/27 06:38:02;;;;;;;7.75;2.17;;;15.70;41.60;;;;;;5152314;27;45149;-53
2024/01/27 06:40:29;;;;;;;5.18;1.95;;;15.70;41.80;;;;;;5151736;27;45647;-53
2024/01/27 06:42:57;;;;;;;4.72;1.83;;;15.70;41.80;;;;;;5156783;27;45793;-53
2024/01/27 06:45:23;;;;;;;6.72;2.33;;;15.60;42.20;;;;;;5154002;27;47074;-53
2024/01/27 06:47:50;;;;;;;4.65;1.90;;;15.60;42.20;;;;;;5152592;27;45283;-53
2024/01/27 06:50:17;;;;;;;7.00;2.35;;;15.60;42.20;;;;;;5151690;27;45302;-53
2024/01/27 06:52:45;;;;;;;6.43;1.73;;;15.60;42.10;;;;;;5156170;27;45295;-52
2024/01/27 06:55:12;;;;;;;7.72;2.35;;;15.60;42.20;;;;;;5150000;27;46396;-53
2024/01/27 06:57:40;;;;;;;5.82;1.85;;;15.60;42.20;;;;;;5152379;27;45118;-52
2024/01/27 07:00:14;;;;;;;4.97;1.85;;;15.60;42.10;;;;;;5150601;27;45278;-52
2024/01/27 07:02:41;;;;;;;6.35;2.03;;;15.60;42.10;;;;;;5155659;27;45245;-52
2024/01/27 07:05:09;;;;;;;5.25;2.05;;;15.60;41.80;;;;;;5152292;27;45165;-52
2024/01/27 07:07:36;;;;;;;6.90;2.00;;;15.60;41.80;;;;;;5154688;27;44660;-53
2024/01/27 07:10:03;;;;;;;7.57;2.20;;;15.60;41.70;;;;;;5152513;27;45125;-52
2024/01/27 07:12:30;;;;;;;10.23;1.80;;;15.60;41.60;;;;;;5152847;27;45139;-52
2024/01/27 07:14:59;;;;;;;7.25;2.40;;;15.60;41.50;;;;;;5153074;27;45443;-52
2024/01/27 07:17:27;;;;;;;7.43;2.03;;;15.60;40.90;;;;;;5152397;27;45424;-52
2024/01/27 07:19:54;;;;;;;6.72;2.13;;;15.60;40.70;;;;;;5153789;27;45125;-52
2024/01/27 07:22:21;;;;;;;4.85;1.85;;;15.60;40.70;;;;;;5152443;27;45179;-52
2024/01/27 07:24:51;;;;;;;5.45;2.25;;;15.60;40.50;;;;;;5152394;27;45190;-52
2024/01/27 07:27:17;;;;;;;5.53;1.77;;;15.60;40.90;;;;;;5149881;27;45164;-52
2024/01/27 07:29:44;;;;;;;6.63;2.15;;;15.60;40.70;;;;;;5151122;27;44660;-53
2024/01/27 07:32:13;;;;;;;7.38;2.10;;;15.60;40.40;;;;;;5150719;27;45146;-52
2024/01/27 07:34:41;;;;;;;7.13;1.92;;;15.60;40.40;;;;;;5150636;27;45437;-53
2024/01/27 07:37:09;;;;;;;4.88;1.73;;;15.50;40.80;;;;;;5151565;27;45474;-53
2024/01/27 07:39:35;;;;;;;6.53;2.03;;;15.50;41.00;;;;;;5148720;27;45513;-53
2024/01/27 07:42:02;;;;;;;7.32;2.15;;;15.50;41.20;;;;;;5151903;27;45161;-53
2024/01/27 07:44:29;;;;;;;5.82;1.85;;;15.50;40.90;;;;;;5152984;27;47966;-53
2024/01/27 07:46:56;;;;;;;4.07;1.65;;;15.50;41.10;;;;;;5153318;27;45262;-53
2024/01/27 07:49:23;;;;;;;5.32;2.00;;;15.50;40.90;;;;;;5150471;27;45098;-53
2024/01/27 07:51:51;;;;;;;6.55;1.90;;;15.50;41.10;;;;;;5152960;27;45408;-53
2024/01/27 07:54:17;;;;;;;5.05;1.50;;;15.50;40.90;;;;;;5152602;27;46519;-53
2024/01/27 07:56:44;;;;;;;5.50;1.80;;;15.50;43.90;;;;;;5150369;27;45292;-53
2024/01/27 07:59:14;;;;;;;5.47;2.20;;;15.50;43.70;;;;;;5152474;27;45574;-53
2024/01/27 08:01:40;;;;;;;4.03;1.73;;;15.60;43.20;;;;;;5149754;27;45111;-53
2024/01/27 08:04:08;;;;;;;5.28;1.88;;;15.50;42.70;;;;;;5149059;27;48313;-53
2024/01/27 08:06:34;;;;;;;5.43;1.85;;;15.50;42.40;;;;;;5150609;27;45348;-53
2024/01/27 08:09:03;;;;;;;4.47;1.90;;;15.60;42.20;;;;;;5149477;27;45134;-53
2024/01/27 08:11:30;;;;;;;5.55;1.80;;;15.60;41.90;;;;;;5153591;27;45218;-52
2024/01/27 08:13:56;;;;;;;7.68;2.45;;;15.60;42.00;;;;;;5150956;27;45181;-53
2024/01/27 08:16:23;;;;;;;6.72;2.20;;;15.60;43.00;;;;;;5149555;27;45477;-53
2024/01/27 08:18:50;;;;;;;8.40;1.92;;;15.60;41.90;;;;;;5148939;27;45185;-53
2024/01/27 08:21:17;;;;;;;22.02;2.30;;;15.60;41.80;;;;;;5154135;27;45298;-53
2024/01/27 08:23:44;;;;;;;16.83;2.67;;;15.70;45.50;;;;;;5147296;27;45257;-53
2024/01/27 08:26:12;;;;;;;6.40;1.95;;;15.70;43.90;;;;;;5148429;27;45249;-53
2024/01/27 08:28:39;;;;;;;9.65;2.00;;;15.70;42.10;;;;;;5156722;27;45209;-53
2024/01/27 08:31:06;;;;;;;5.97;1.80;;;15.60;42.00;;;;;;5151446;27;45253;-53
2024/01/27 08:33:33;;;;;;;6.43;2.13;;;15.60;41.80;;;;;;5148305;27;47651;-54
2024/01/27 08:36:00;;;;;;;5.68;1.50;;;15.60;41.70;;;;;;5152034;27;45378;-54
2024/01/27 08:38:27;;;;;;;7.40;2.15;;;15.60;41.60;;;;;;5149728;27;45282;-53
2024/01/27 08:40:54;;;;;;;6.78;1.83;;;15.60;41.80;;;;;;5148034;27;45535;-53
2024/01/27 08:43:22;;;;;;;7.45;2.17;;;15.60;42.50;;;;;;5152414;27;45615;-53
2024/01/27 08:45:48;;;;;;;6.07;1.85;;;15.60;41.70;;;;;;5151290;27;45528;-53
2024/01/27 08:48:16;;;;;;;5.00;1.67;;;15.60;41.80;;;;;;5148554;27;45162;-53
2024/01/27 08:50:43;;;;;;;6.03;1.80;;;15.60;41.70;;;;;;5150277;27;45162;-53
2024/01/27 08:53:09;;;;;;;4.82;1.95;;;15.60;41.70;;;;;;5151878;27;45220;-53
2024/01/27 08:55:36;;;;;;;5.30;2.10;;;15.60;41.50;;;;;;5151340;27;45888;-53
2024/01/27 08:58:03;;;;;;;7.25;2.00;;;15.60;41.60;;;;;;5152275;27;44823;-53
2024/01/27 09:00:31;;;;;;;6.95;2.00;;;15.60;41.40;;;;;;5150478;27;44722;-53
2024/01/27 09:02:58;;;;;;;3.97;1.67;;;15.60;41.50;;;;;;5152074;27;45256;-53
2024/01/27 09:05:25;;;;;;;2.75;1.45;;;15.60;41.80;;;;;;5148419;27;45280;-53
2024/01/27 09:07:51;;;;;;;5.32;1.70;;;15.60;41.50;;;;;;5151738;27;45184;-53
2024/01/27 09:10:18;;;;;;;5.88;1.88;;;15.60;41.60;;;;;;5148966;27;45152;-53
2024/01/27 09:12:45;;;;;;;5.47;1.80;;;15.60;41.50;;;;;;5152532;27;48247;-53
2024/01/27 09:15:12;;;;;;;5.85;2.20;;;15.60;41.60;;;;;;5148055;27;45195;-53
2024/01/27 09:17:42;;;;;;;4.97;2.00;;;15.60;41.60;;;;;;5150097;27;45223;-53
2024/01/27 09:20:10;;;;;;;5.55;1.80;;;15.60;41.70;;;;;;5153237;27;45311;-53
2024/01/27 09:22:37;;;;;;;6.47;2.35;;;15.60;41.80;;;;;;5149366;27;45194;-53
2024/01/27 09:25:04;;;;;;;4.95;1.45;;;15.60;41.70;;;;;;5152316;27;45172;-53
2024/01/27 09:27:31;;;;;;;6.13;2.08;;;15.60;41.70;;;;;;5147872;27;45418;-53
2024/01/27 09:29:58;;;;;;;8.43;2.63;;;15.60;41.80;;;;;;5154940;27;45266;-53
2024/01/27 09:32:25;;;;;;;4.05;1.60;;;15.70;41.90;;;;;;5150387;27;48530;-53
2024/01/27 09:34:53;;;;;;;7.50;2.22;;;15.70;41.90;;;;;;5149981;27;45126;-53
2024/01/27 09:37:20;;;;;;;5.55;1.80;;;15.70;41.80;;;;;;5150375;27;45305;-53
2024/01/27 09:39:47;;;;;;;4.20;1.80;;;15.70;41.90;;;;;;5150423;27;45264;-54
2024/01/27 09:42:15;;;;;;;4.28;1.63;;;15.70;41.80;;;;;;5150985;27;47156;-53
2024/01/27 09:44:44;;;;;;;5.68;2.05;;;15.70;41.90;;;;;;5152643;27;45201;-53
2024/01/27 09:47:11;;;;;;;3.22;1.40;;;15.70;41.80;;;;;;5149627;27;45419;-53
2024/01/27 09:49:40;;;;;;;4.30;1.67;;;15.70;41.80;;;;;;5151687;27;45113;-53
2024/01/27 09:52:09;;;;;;;4.63;2.00;;;15.80;41.80;;;;;;5152747;27;45326;-53
2024/01/27 09:54:36;;;;;;;5.18;1.75;;;15.80;43.00;;;;;;5155879;27;45388;-53
2024/01/27 09:57:03;;;;;;;6.13;1.92;;;15.80;41.80;;;;;;5153842;27;45234;-53
2024/01/27 09:59:30;;;;;;;8.38;1.85;;;15.80;42.20;;;;;;5151886;27;45469;-54
2024/01/27 10:01:59;;;;;;;4.18;1.58;;;15.90;44.40;;;;;;5154894;27;47044;-54
2024/01/27 10:04:26;;;;;;;7.15;2.15;;;15.90;44.60;;;;;;5151620;27;45496;-51
2024/01/27 10:06:53;;;;;;;3.60;1.50;;;15.80;44.30;;;;;;5154371;27;45413;-52
2024/01/27 10:09:21;;;;;;;6.47;1.88;;;15.70;44.00;;;;;;5152646;27;45484;-52
2024/01/27 10:11:49;;;;;;;6.45;1.85;;;15.70;43.80;;;;;;5155894;27;47003;-52
2024/01/27 10:14:15;;;;;;;7.72;2.00;;;15.70;43.90;;;;;;5154653;27;45337;-51
2024/01/27 10:16:43;;;;;;;5.55;1.88;;;15.70;43.70;;;;;;5150990;27;45251;-52
2024/01/27 10:19:16;;;;;;;4.28;1.50;;;15.60;43.60;;;;;;5154727;27;45420;-51
2024/01/27 10:21:42;;;;;;;5.90;1.80;;;15.60;43.60;;;;;;5153100;27;46500;-51
2024/01/27 10:24:09;;;;;;;7.10;1.83;;;15.60;44.60;;;;;;5152649;27;45127;-51
2024/01/27 10:26:38;;;;;;;7.43;1.70;;;15.60;45.10;;;;;;5150943;27;45325;-51
2024/01/27 10:29:04;;;;;;;6.53;2.08;;;15.60;45.60;;;;;;5155209;27;45235;-51
2024/01/27 10:31:34;;;;;;;7.47;1.65;;;15.60;45.20;;;;;;5150886;27;45381;-51
2024/01/27 10:34:03;;;;;;;4.75;1.70;;;15.60;44.50;;;;;;5154740;27;45268;-51
2024/01/27 10:36:40;;;;;;;4.97;1.83;;;15.60;44.30;;;;;;5153157;27;45382;-51
2024/01/27 10:39:16;;;;;;;4.68;1.70;;;15.60;44.10;;;;;;5154875;27;45201;-52
2024/01/27 10:41:46;;;;;;;6.18;1.90;;;15.60;44.10;;;;;;5153681;27;46217;-51
2024/01/27 10:44:15;;;;;;;6.85;2.00;;;15.60;44.00;;;;;;5156629;27;45939;-51
2024/01/27 10:46:44;;;;;;;5.80;1.35;;;15.60;43.90;;;;;;5148870;27;45274;-52
2024/01/27 10:49:14;;;;;;;4.40;1.67;;;15.60;44.00;;;;;;5152407;27;45428;-52
2024/01/27 10:51:45;;;;;;;11.73;1.70;;;15.70;44.00;;;;;;5150396;27;47595;-52
2024/01/27 10:54:16;;;;;;;8.23;1.70;;;15.70;45.60;;;;;;5149949;27;45321;-52
2024/01/27 10:56:46;;;;;;;9.60;2.30;;;15.90;48.40;;;;;;5151683;27;45270;-52
2024/01/27 10:59:15;;;;;;;7.18;1.67;;;15.90;44.80;;;;;;5151128;27;45431;-52
2024/01/27 11:01:43;;;;;;;5.55;1.63;;;15.90;45.00;;;;;;5150175;27;48785;-52
2024/01/27 11:04:13;;;;;;;6.70;1.92;;;15.80;45.00;;;;;;5154346;27;45478;-52
2024/01/27 11:06:41;;;;;;;4.65;1.77;;;15.80;45.00;;;;;;5149516;27;45333;-52
2024/01/27 11:09:11;;;;;;;7.80;1.85;;;15.80;45.00;;;;;;5150518;27;45302;-52
2024/01/27 11:11:39;;;;;;;6.57;1.92;;;15.80;45.10;;;;;;5152088;27;45391;-52
2024/01/27 11:14:09;;;;;;;4.93;1.77;;;15.80;44.90;;;;;;5152851;27;44690;-52
2024/01/27 11:16:38;;;;;;;6.78;1.77;;;15.80;44.80;;;;;;5151329;27;45223;-52
2024/01/27 11:19:05;;;;;;;4.93;1.52;;;15.80;44.80;;;;;;5154161;27;45395;-52
2024/01/27 11:21:32;;;;;;;5.18;1.48;;;15.80;44.80;;;;;;5151208;27;45298;-52
2024/01/27 11:23:59;;;;;;;4.88;1.75;;;15.80;45.90;;;;;;5152055;27;45212;-52
2024/01/27 11:26:26;;;;;;;4.93;1.38;;;15.80;46.60;;;;;;5150226;27;45177;-52
2024/01/27 11:28:53;;;;;;;3.88;1.35;;;15.80;47.00;;;;;;5149259;27;45222;-52
2024/01/27 11:31:21;;;;;;;5.03;1.60;;;15.80;47.40;;;;;;5150796;27;46269;-52
2024/01/27 11:33:51;;;;;;;7.25;1.50;;;15.80;47.80;;;;;;5156235;27;45411;-52
2024/01/27 11:36:23;;;;;;;4.72;1.40;;;15.80;48.10;;;;;;5152198;27;45186;-52
2024/01/27 11:38:50;;;;;;;6.18;1.73;;;15.80;47.90;;;;;;5152293;27;45393;-52
2024/01/27 11:41:27;;;;;;;3.95;1.30;;;15.90;47.90;;;;;;5153742;27;45550;-52
2024/01/27 11:43:55;;;;;;;5.13;1.42;;;15.90;48.10;;;;;;5153859;27;45177;-52
2024/01/27 11:46:23;;;;;;;5.72;1.85;;;15.90;48.30;;;;;;5149345;27;45287;-52
2024/01/27 11:48:50;;;;;;;7.05;1.50;;;15.90;48.10;;;;;;5151133;27;45591;-52
2024/01/27 11:51:19;;;;;;;4.85;1.13;;;16.00;47.80;;;;;;5150548;27;47800;-52
2024/01/27 11:53:46;;;;;;;3.67;1.77;;;16.10;47.60;;;;;;5149822;27;45451;-52
2024/01/27 11:56:13;;;;;;;5.30;1.65;;;16.10;47.50;;;;;;5151722;27;45196;-52
2024/01/27 11:58:47;;;;;;;2.70;1.40;;;16.20;47.70;;;;;;5151429;27;45211;-52
2024/01/27 12:01:14;;;;;;;5.00;1.67;;;16.20;47.90;;;;;;5149733;27;45315;-52
2024/01/27 12:03:43;;;;;;;7.78;1.88;;;16.20;48.20;;;;;;5155141;27;44616;-52
2024/01/27 12:06:10;;;;;;;3.80;1.35;;;16.20;48.40;;;;;;5149841;27;45294;-52
2024/01/27 12:08:37;;;;;;;2.60;1.00;;;16.10;48.20;;;;;;5149419;27;45594;-52
2024/01/27 12:11:04;;;;;;;4.70;1.70;;;16.10;48.50;;;;;;5152404;27;45252;-52
2024/01/27 12:13:31;;;;;;;5.95;1.40;;;16.20;48.90;;;;;;5149978;27;45195;-52
2024/01/27 12:15:58;;;;;;;4.72;1.45;;;16.10;49.20;;;;;;5150250;27;45287;-52
2024/01/27 12:18:25;;;;;;;2.72;0.95;;;16.10;49.70;;;;;;5151271;27;45148;-52
2024/01/27 12:20:57;;;;;;;8.82;1.60;;;16.10;50.30;;;;;;5151698;27;45216;-52
2024/01/27 12:23:24;;;;;;;4.28;1.20;;;16.10;50.30;;;;;;5152131;27;46108;-52
2024/01/27 12:25:54;;;;;;;4.00;1.05;;;16.10;50.00;;;;;;5152493;27;45144;-52
2024/01/27 12:28:21;;;;;;;4.05;1.30;;;16.10;50.30;;;;;;5150757;27;45368;-52
2024/01/27 12:30:48;;;;;;;3.55;1.20;;;16.10;50.30;;;;;;5154538;27;45311;-52
2024/01/27 12:33:15;;;;;;;6.22;1.55;;;16.10;50.30;;;;;;5148583;27;45260;-52
2024/01/27 12:35:42;;;;;;;6.10;1.50;;;16.10;50.30;;;;;;5152398;27;45255;-52
2024/01/27 12:38:10;;;;;;;7.07;1.50;;;16.10;50.40;;;;;;5145967;27;45867;-52
2024/01/27 12:40:39;;;;;;;3.17;0.98;;;16.00;50.30;;;;;;5149393;27;45265;-52
2024/01/27 12:43:06;;;;;;;3.92;1.48;;;16.00;50.30;;;;;;5153153;27;45257;-52
2024/01/27 12:45:34;;;;;;;3.70;1.50;;;16.00;50.30;;;;;;5154521;27;44626;-52